sensor_id;sensor_type;location;lat;lon;timestamp;temperature;humidity
44069;DHT22;29738;51.234;5.484;2024-02-16T12:22:47;13.70;99.90
44069;DHT22;29738;51.234;5.484;2024-02-16T12:25:13;13.70;99.90
44069;DHT22;29738;51.234;5.484;2024-02-16T12:27:39;13.90;99.90
44069;DHT22;29738;51.234;5.484;2024-02-16T12:30:07;13.60;99.90
44069;DHT22;29738;51.234;5.484;2024-02-16T12:32:33;13.60;99.90
44069;DHT22;29738;51.234;5.484;2024-02-16T12:34:59;13.50;99.90
44069;DHT22;29738;51.234;5.484;2024-02-16T12:37:25;13.60;99.90
44069;DHT22;29738;51.234;5.484;2024-02-16T12:39:50;13.60;99.90
44069;DHT22;29738;51.234;5.484;2024-02-16T12:42:16;13.50;99.90
44069;DHT22;29738;51.234;5.484;2024-02-16T12:44:42;13.40;99.90
44069;DHT22;29738;51.234;5.484;2024-02-16T12:47:08;13.40;99.90
44069;DHT22;29738;51.234;5.484;2024-02-16T12:49:37;13.40;99.90
44069;DHT22;29738;51.234;5.484;2024-02-16T12:52:35;13.10;99.90
44069;DHT22;29738;51.234;5.484;2024-02-16T12:55:30;13.30;99.90
44069;DHT22;29738;51.234;5.484;2024-02-16T17:27:04;12.30;99.90
44069;DHT22;29738;51.234;5.484;2024-02-16T17:29:30;12.30;99.90
44069;DHT22;29738;51.234;5.484;2024-02-16T17:31:56;12.30;99.90
44069;DHT22;29738;51.234;5.484;2024-02-16T17:34:23;12.00;99.90
44069;DHT22;29738;51.234;5.484;2024-02-16T17:36:49;12.20;99.90
44069;DHT22;29738;51.234;5.484;2024-02-16T17:39:15;12.10;99.90
44069;DHT22;29738;51.234;5.484;2024-02-16T17:41:41;12.20;99.90
44069;DHT22;29738;51.234;5.484;2024-02-16T19:05:15;12.10;99.90
44069;DHT22;29738;51.234;5.484;2024-02-16T19:07:41;12.10;99.90
44069;DHT22;29738;51.234;5.484;2024-02-16T19:10:07;12.10;99.90
44069;DHT22;29738;51.234;5.484;2024-02-16T19:12:33;12.10;99.90
44069;DHT22;29738;51.234;5.484;2024-02-16T19:14:59;12.20;99.90
44069;DHT22;29738;51.234;5.484;2024-02-16T19:17:26;12.20;99.90
44069;DHT22;29738;51.234;5.484;2024-02-16T19:19:52;12.10;99.90
44069;DHT22;29738;51.234;5.484;2024-02-16T19:22:19;12.10;99.90
44069;DHT22;29738;51.234;5.484;2024-02-16T19:24:45;12.10;99.90
44069;DHT22;29738;51.234;5.484;2024-02-16T19:27:11;11.90;99.90
44069;DHT22;29738;51.234;5.484;2024-02-16T19:29:37;11.80;99.90
44069;DHT22;29738;51.234;5.484;2024-02-16T19:32:04;11.80;99.90
44069;DHT22;29738;51.234;5.484;2024-02-16T19:34:37;11.90;99.90
44069;DHT22;29738;51.234;5.484;2024-02-16T19:37:10;11.90;99.90
44069;DHT22;29738;51.234;5.484;2024-02-16T19:39:39;11.90;99.90
44069;DHT22;29738;51.234;5.484;2024-02-16T19:42:05;11.70;99.90
44069;DHT22;29738;51.234;5.484;2024-02-16T19:44:33;11.60;99.90
44069;DHT22;29738;51.234;5.484;2024-02-16T19:47:06;11.50;99.90
44069;DHT22;29738;51.234;5.484;2024-02-16T19:49:32;11.30;99.90
44069;DHT22;29738;51.234;5.484;2024-02-16T19:52:01;11.40;99.90
44069;DHT22;29738;51.234;5.484;2024-02-16T19:54:28;11.50;99.90
44069;DHT22;29738;51.234;5.484;2024-02-16T19:56:54;11.40;99.90
44069;DHT22;29738;51.234;5.484;2024-02-16T19:59:20;11.30;99.90
44069;DHT22;29738;51.234;5.484;2024-02-16T20:01:46;11.40;99.90
44069;DHT22;29738;51.234;5.484;2024-02-16T20:04:12;11.20;99.90
44069;DHT22;29738;51.234;5.484;2024-02-16T20:07:01;11.10;99.90
44069;DHT22;29738;51.234;5.484;2024-02-16T20:09:28;11.10;99.90
44069;DHT22;29738;51.234;5.484;2024-02-16T20:11:57;10.90;99.90
44069;DHT22;29738;51.234;5.484;2024-02-16T20:14:29;11.10;99.90
44069;DHT22;29738;51.234;5.484;2024-02-16T20:16:57;11.00;99.90
44069;DHT22;29738;51.234;5.484;2024-02-16T20:19:24;10.90;99.90
44069;DHT22;29738;51.234;5.484;2024-02-16T20:21:56;11.30;99.90
44069;DHT22;29738;51.234;5.484;2024-02-16T20:24:26;11.20;99.90
44069;DHT22;29738;51.234;5.484;2024-02-16T20:26:56;11.10;99.90
44069;DHT22;29738;51.234;5.484;2024-02-16T21:05:41;10.60;99.90
